Time;durP1;ratioP1;P1;durP2;ratioP2;P2;SDS_P1;SDS_P2;PMS_P1;PMS_P2;Temp;Humidity;BMP_temperature;BMP_pressure;BME280_temperature;BME280_humidity;BME280_pressure;Samples;Min_cycle;Max_cycle;Signal;HPM_P1;HPM_P2
2022/08/16 00:01:28;;;;;;;14.05;12.70;;;22.40;99.90;;;;;;5015244;28;20185;-72
2022/08/16 00:03:54;;;;;;;14.05;12.57;;;22.40;99.90;;;;;;5011849;28;20260;-72
2022/08/16 00:06:20;;;;;;;15.20;12.45;;;22.50;99.90;;;;;;5010362;28;20213;-71
2022/08/16 00:08:46;;;;;;;14.23;12.65;;;22.30;99.90;;;;;;5015075;28;20253;-72
2022/08/16 00:11:12;;;;;;;13.07;11.75;;;22.30;99.90;;;;;;5011930;28;20283;-72
2022/08/16 00:13:38;;;;;;;14.05;12.38;;;22.20;99.90;;;;;;5011059;28;20541;-72
2022/08/16 00:16:04;;;;;;;12.85;11.25;;;22.10;99.90;;;;;;5017537;28;20179;-71
2022/08/16 00:18:30;;;;;;;12.65;11.45;;;22.20;99.90;;;;;;5016483;28;20317;-72
2022/08/16 00:20:56;;;;;;;13.20;11.90;;;22.30;99.90;;;;;;5010944;28;20288;-71
2022/08/16 00:23:21;;;;;;;12.93;11.63;;;22.20;99.90;;;;;;5003013;28;20235;-71
2022/08/16 00:25:47;;;;;;;13.07;11.20;;;22.30;99.90;;;;;;5020128;28;20681;-72
2022/08/16 00:28:12;;;;;;;14.50;12.20;;;22.30;99.90;;;;;;5011949;28;20173;-71
2022/08/16 00:30:39;;;;;;;14.38;12.10;;;22.30;99.90;;;;;;5007989;28;20213;-72
2022/08/16 00:33:04;;;;;;;12.50;11.25;;;22.40;99.90;;;;;;5015915;28;20207;-72
2022/08/16 00:35:33;;;;;;;12.90;11.20;;;22.40;99.90;;;;;;5020700;28;20204;-72
2022/08/16 00:38:03;;;;;;;14.35;11.43;;;22.40;99.90;;;;;;5010279;28;20260;-72
2022/08/16 00:40:39;;;;;;;13.15;11.85;;;22.40;99.90;;;;;;5005174;28;20190;-72
2022/08/16 00:43:28;;;;;;;13.35;11.68;;;22.40;99.90;;;;;;5018433;28;20215;-71
2022/08/16 00:46:21;;;;;;;12.32;11.15;;;22.30;99.90;;;;;;5009526;28;20209;-73
2022/08/16 00:48:49;;;;;;;13.85;11.15;;;22.30;99.90;;;;;;5008459;28;20209;-73
2022/08/16 00:51:18;;;;;;;13.10;11.80;;;22.30;99.90;;;;;;5014176;28;20199;-73
2022/08/16 00:53:45;;;;;;;14.90;11.68;;;22.30;99.90;;;;;;5013633;28;20220;-72
2022/08/16 00:56:15;;;;;;;14.05;12.32;;;22.30;99.90;;;;;;5006529;28;20645;-74
2022/08/16 00:58:43;;;;;;;15.45;12.35;;;22.20;99.90;;;;;;5012053;28;20193;-72
2022/08/16 01:01:10;;;;;;;14.18;12.77;;;22.20;99.90;;;;;;5012857;28;20192;-74
2022/08/16 01:03:40;;;;;;;16.48;14.32;;;22.10;99.90;;;;;;5014965;28;20275;-72
2022/08/16 01:06:06;;;;;;;15.02;13.38;;;22.10;99.90;;;;;;5011272;28;20312;-72
2022/08/16 01:08:34;;;;;;;14.27;12.60;;;22.10;99.90;;;;;;5018523;28;20233;-73
2022/08/16 01:11:00;;;;;;;14.70;12.88;;;22.00;99.90;;;;;;5012696;28;20217;-74
2022/08/16 01:13:29;;;;;;;16.67;13.38;;;22.00;99.90;;;;;;5005474;28;20174;-72
2022/08/16 01:15:59;;;;;;;16.92;13.20;;;22.00;99.90;;;;;;5016172;28;20243;-73
2022/08/16 01:18:33;;;;;;;14.95;13.35;;;22.00;99.90;;;;;;5016416;28;20205;-72
2022/08/16 01:21:13;;;;;;;15.95;13.43;;;22.00;99.90;;;;;;5013057;28;20673;-71
2022/08/16 01:23:59;;;;;;;14.82;13.35;;;22.00;99.90;;;;;;5006550;28;20685;-74
2022/08/16 01:26:29;;;;;;;16.77;13.40;;;22.00;99.90;;;;;;5013719;28;20303;-72
2022/08/16 01:28:56;;;;;;;15.43;13.82;;;22.00;99.90;;;;;;5010828;28;20216;-72
2022/08/16 01:31:24;;;;;;;16.23;14.00;;;21.90;99.90;;;;;;5003123;28;20170;-71
2022/08/16 01:33:49;;;;;;;15.27;13.68;;;21.90;99.90;;;;;;5018853;28;20176;-71
2022/08/16 01:36:15;;;;;;;15.13;13.52;;;21.90;99.90;;;;;;5011817;28;20200;-72
2022/08/16 01:38:47;;;;;;;15.25;13.65;;;21.90;99.90;;;;;;5007486;28;20763;-71
2022/08/16 01:41:17;;;;;;;17.25;13.30;;;21.90;99.90;;;;;;5008436;28;20615;-71
2022/08/16 01:43:45;;;;;;;17.73;14.25;;;21.90;99.90;;;;;;5017506;28;20626;-70
2022/08/16 01:46:28;;;;;;;15.68;14.07;;;21.90;99.90;;;;;;5013835;28;20189;-71
2022/08/16 01:48:59;;;;;;;14.90;13.40;;;21.90;99.90;;;;;;5004176;28;20209;-73
2022/08/16 01:51:26;;;;;;;15.95;14.32;;;21.90;99.90;;;;;;5013939;28;20205;-73
2022/08/16 01:53:52;;;;;;;15.60;14.05;;;21.90;99.90;;;;;;5012921;28;20208;-71
2022/08/16 01:56:20;;;;;;;17.77;14.43;;;21.80;99.90;;;;;;5007572;28;20209;-71
2022/08/16 01:58:45;;;;;;;16.17;13.27;;;21.80;99.90;;;;;;5012214;28;20730;-71
2022/08/16 02:01:11;;;;;;;15.10;13.55;;;21.70;99.90;;;;;;5013576;28;20165;-72
2022/08/16 02:03:38;;;;;;;16.95;14.45;;;21.70;99.90;;;;;;5015486;28;20201;-74
2022/08/16 02:06:04;;;;;;;16.00;14.30;;;21.50;99.90;;;;;;5007350;28;20295;-71
2022/08/16 02:08:30;;;;;;;16.77;14.95;;;21.50;99.90;;;;;;5016379;28;20201;-73
2022/08/16 02:10:56;;;;;;;19.90;15.38;;;21.50;99.90;;;;;;5021033;28;20207;-71
2022/08/16 02:13:22;;;;;;;15.90;14.35;;;21.50;99.90;;;;;;5039170;23;20236;-70
2022/08/16 02:15:47;;;;;;;16.23;14.27;;;21.60;99.90;;;;;;5055531;28;20765;-70
2022/08/16 02:18:13;;;;;;;20.52;15.00;;;21.50;99.90;;;;;;5055124;28;20196;-70
2022/08/16 02:20:41;;;;;;;16.08;14.40;;;21.60;99.90;;;;;;5046107;28;20219;-70
2022/08/16 02:23:08;;;;;;;18.98;16.10;;;21.50;99.90;;;;;;5042367;28;20204;-69
2022/08/16 02:25:34;;;;;;;16.90;15.10;;;21.50;99.90;;;;;;5055514;28;20200;-69
2022/08/16 02:28:00;;;;;;;17.30;14.60;;;21.50;99.90;;;;;;5032112;28;20199;-69
2022/08/16 02:30:29;;;;;;;17.08;15.27;;;21.40;99.90;;;;;;5046444;28;20195;-69
2022/08/16 02:32:55;;;;;;;17.10;15.02;;;21.50;99.90;;;;;;5045878;28;20558;-69
2022/08/16 02:35:22;;;;;;;17.00;15.27;;;21.60;99.90;;;;;;5051012;28;20246;-69
2022/08/16 02:37:47;;;;;;;17.45;15.45;;;21.60;99.90;;;;;;5045852;28;20210;-68
2022/08/16 02:40:15;;;;;;;22.45;17.48;;;21.60;99.90;;;;;;5043274;28;20169;-69
2022/08/16 02:42:42;;;;;;;17.42;14.80;;;21.50;99.90;;;;;;5050463;28;20241;-69
2022/08/16 02:45:09;;;;;;;16.65;14.82;;;21.50;99.90;;;;;;5044049;28;20199;-69
2022/08/16 02:47:34;;;;;;;16.95;15.15;;;21.40;99.90;;;;;;5044537;28;20222;-69
2022/08/16 02:50:00;;;;;;;16.98;14.95;;;21.40;99.90;;;;;;5039918;28;20208;-69
2022/08/16 02:52:26;;;;;;;17.40;15.20;;;21.40;99.90;;;;;;5050464;28;20630;-69
2022/08/16 02:54:52;;;;;;;19.33;15.75;;;21.40;99.90;;;;;;5046692;28;20201;-69
2022/08/16 02:57:18;;;;;;;17.85;15.43;;;21.40;99.90;;;;;;5043267;28;20203;-69
2022/08/16 02:59:43;;;;;;;17.02;15.32;;;21.40;99.90;;;;;;5045099;28;20281;-69
2022/08/16 03:02:09;;;;;;;17.67;15.90;;;21.30;99.90;;;;;;5047941;28;20207;-69
2022/08/16 03:04:36;;;;;;;18.83;16.40;;;21.40;99.90;;;;;;5042924;28;20279;-69
2022/08/16 03:07:05;;;;;;;17.80;15.90;;;21.30;99.90;;;;;;5047980;28;20218;-69
2022/08/16 03:09:31;;;;;;;19.30;16.77;;;21.30;99.90;;;;;;5046626;28;20755;-69
2022/08/16 03:11:56;;;;;;;19.52;17.17;;;21.30;99.90;;;;;;5056050;28;20213;-69
2022/08/16 03:14:22;;;;;;;18.38;16.10;;;21.30;99.90;;;;;;5042694;28;20216;-69
2022/08/16 03:16:48;;;;;;;18.42;16.50;;;21.30;99.90;;;;;;5056993;28;20553;-69
2022/08/16 03:19:14;;;;;;;17.67;15.95;;;21.30;99.90;;;;;;5052071;28;20187;-69
2022/08/16 03:21:40;;;;;;;19.45;16.70;;;21.30;99.90;;;;;;5053191;28;20225;-69
2022/08/16 03:24:06;;;;;;;22.23;16.90;;;21.30;99.90;;;;;;5052284;28;20731;-69
2022/08/16 03:26:32;;;;;;;19.77;17.70;;;21.20;99.90;;;;;;5052023;28;20247;-69
2022/08/16 03:28:58;;;;;;;18.75;15.95;;;21.20;99.90;;;;;;5044588;28;20220;-69
2022/08/16 03:31:24;;;;;;;18.40;16.45;;;21.20;99.90;;;;;;5047060;28;20206;-69
2022/08/16 03:33:49;;;;;;;19.52;17.45;;;21.20;99.90;;;;;;5055277;28;20191;-69
2022/08/16 03:36:15;;;;;;;19.30;17.10;;;21.20;99.90;;;;;;5048465;28;20199;-69
2022/08/16 03:38:41;;;;;;;20.33;16.77;;;21.20;99.90;;;;;;5049928;28;20718;-68
2022/08/16 03:41:07;;;;;;;20.27;17.42;;;21.20;99.90;;;;;;5048393;28;20210;-69
2022/08/16 03:43:33;;;;;;;21.00;17.20;;;21.20;99.90;;;;;;5057046;28;20210;-69
2022/08/16 03:45:59;;;;;;;18.60;16.42;;;21.20;99.90;;;;;;5053039;28;20225;-69
2022/08/16 03:48:27;;;;;;;19.02;16.92;;;21.20;99.90;;;;;;5044043;28;20279;-69
2022/08/16 03:50:53;;;;;;;18.48;16.67;;;21.20;99.90;;;;;;5054765;28;20199;-69
2022/08/16 03:53:19;;;;;;;18.92;16.45;;;21.30;99.90;;;;;;5048916;28;20567;-70
2022/08/16 03:55:45;;;;;;;18.35;15.90;;;21.30;99.90;;;;;;5050714;28;20219;-69
2022/08/16 03:58:11;;;;;;;17.35;15.55;;;21.20;99.90;;;;;;5047162;28;20195;-69
2022/08/16 04:00:36;;;;;;;18.40;15.65;;;21.20;99.90;;;;;;5057639;28;20203;-69
2022/08/16 04:03:07;;;;;;;18.33;16.42;;;21.30;99.90;;;;;;5050346;28;20214;-69
2022/08/16 04:05:35;;;;;;;18.65;16.60;;;21.40;99.90;;;;;;5045439;28;20197;-69
2022/08/16 04:08:03;;;;;;;20.70;16.13;;;21.40;99.90;;;;;;5054423;28;20210;-69
2022/08/16 04:10:29;;;;;;;18.63;16.73;;;21.30;99.90;;;;;;5053399;28;20177;-69
2022/08/16 04:12:55;;;;;;;18.42;16.63;;;21.30;99.90;;;;;;5049899;28;20172;-68
2022/08/16 04:15:21;;;;;;;17.85;15.50;;;21.40;99.90;;;;;;5048743;28;20215;-69
2022/08/16 04:17:46;;;;;;;18.75;16.27;;;21.40;99.90;;;;;;5057512;28;20202;-69
2022/08/16 04:20:13;;;;;;;17.60;15.70;;;21.50;99.90;;;;;;5050297;28;20209;-69
2022/08/16 04:22:41;;;;;;;22.23;17.48;;;21.50;99.90;;;;;;5052338;28;20255;-69
2022/08/16 04:25:07;;;;;;;18.63;15.93;;;21.60;99.90;;;;;;5054986;28;20182;-69
2022/08/16 04:27:32;;;;;;;17.77;15.65;;;21.60;99.90;;;;;;5047347;28;20216;-70
2022/08/16 04:29:59;;;;;;;19.15;15.70;;;21.70;99.90;;;;;;5047038;28;20200;-69
2022/08/16 04:32:25;;;;;;;19.90;17.00;;;21.80;99.90;;;;;;5042468;28;20200;-69
2022/08/16 04:34:50;;;;;;;21.33;16.98;;;21.80;99.90;;;;;;5056618;28;20613;-70
2022/08/16 04:37:16;;;;;;;19.73;16.33;;;21.90;99.90;;;;;;5050156;28;20210;-69
2022/08/16 04:39:42;;;;;;;19.00;15.50;;;22.00;99.90;;;;;;5046549;28;20258;-70
2022/08/16 04:42:07;;;;;;;17.90;14.77;;;22.50;99.90;;;;;;5054513;28;20494;-70
2022/08/16 04:44:33;;;;;;;15.95;14.35;;;24.00;99.90;;;;;;5046731;28;20212;-70
2022/08/16 04:46:59;;;;;;;16.80;15.00;;;25.10;99.90;;;;;;5048769;28;20219;-70
2022/08/16 04:49:25;;;;;;;17.98;14.18;;;25.80;99.90;;;;;;5041987;28;20264;-70
2022/08/16 04:51:51;;;;;;;15.05;13.52;;;26.70;99.90;;;;;;5058672;28;20636;-70
2022/08/16 04:54:17;;;;;;;15.63;13.90;;;27.30;99.90;;;;;;5049346;28;20294;-70
2022/08/16 04:56:43;;;;;;;15.25;13.48;;;27.60;99.90;;;;;;5047018;28;20217;-70
2022/08/16 04:59:10;;;;;;;15.50;14.00;;;27.90;99.90;;;;;;5052896;28;20215;-70
2022/08/16 05:01:36;;;;;;;14.32;12.93;;;27.70;99.90;;;;;;5057620;28;20263;-71
2022/08/16 05:04:02;;;;;;;14.07;12.75;;;27.40;99.90;;;;;;5048935;28;20314;-69
2022/08/16 05:06:28;;;;;;;17.98;13.65;;;27.50;99.90;;;;;;5049378;28;20704;-69
2022/08/16 05:08:54;;;;;;;13.57;12.05;;;28.30;99.90;;;;;;5056170;28;20199;-67
2022/08/16 05:11:21;;;;;;;13.07;11.77;;;28.30;99.90;;;;;;5049458;28;20552;-67
2022/08/16 05:13:47;;;;;;;12.90;11.68;;;29.00;99.90;;;;;;5044528;28;20208;-69
2022/08/16 05:16:18;;;;;;;13.52;12.32;;;29.30;99.90;;;;;;5057848;28;20176;-66
2022/08/16 05:18:44;;;;;;;14.38;11.57;;;29.50;99.90;;;;;;5055019;28;20243;-70
2022/08/16 05:21:10;;;;;;;15.57;12.00;;;29.90;99.90;;;;;;5054120;28;20199;-68
2022/08/16 05:23:35;;;;;;;13.95;12.63;;;30.80;99.90;;;;;;5047504;28;20596;-68
2022/08/16 05:26:01;;;;;;;13.95;12.55;;;31.10;99.90;;;;;;5056762;28;20222;-67
2022/08/16 05:28:27;;;;;;;14.93;13.52;;;31.10;99.90;;;;;;5049741;28;20173;-67
2022/08/16 05:30:53;;;;;;;14.52;12.93;;;31.30;99.90;;;;;;5046747;28;20210;-67
2022/08/16 05:33:20;;;;;;;13.13;11.85;;;31.10;99.90;;;;;;5046209;28;20208;-67
2022/08/16 05:35:47;;;;;;;13.20;11.75;;;31.10;99.90;;;;;;5055300;28;20191;-67
2022/08/16 05:38:13;;;;;;;14.00;12.60;;;30.10;99.90;;;;;;5046126;28;20195;-67
2022/08/16 05:40:39;;;;;;;14.73;13.27;;;30.30;99.90;;;;;;5045733;28;20238;-67
2022/08/16 05:43:04;;;;;;;14.95;13.45;;;30.90;99.90;;;;;;5072113;28;20290;-68
2022/08/16 05:45:30;;;;;;;14.52;13.10;;;31.00;99.90;;;;;;5043721;28;20283;-67
2022/08/16 05:47:56;;;;;;;13.77;12.38;;;31.70;99.90;;;;;;5060440;28;20737;-67
2022/08/16 05:50:21;;;;;;;14.68;13.27;;;32.30;99.90;;;;;;5046180;28;20565;-68
2022/08/16 05:52:47;;;;;;;14.23;12.88;;;32.00;99.90;;;;;;5055109;28;20663;-67
2022/08/16 05:55:13;;;;;;;15.05;13.50;;;32.90;99.90;;;;;;5052793;28;20268;-67
2022/08/16 05:57:38;;;;;;;14.95;13.52;;;31.40;99.90;;;;;;5054213;28;20223;-68
2022/08/16 06:00:06;;;;;;;15.35;13.75;;;31.70;99.90;;;;;;5054994;28;20603;-68
2022/08/16 06:02:32;;;;;;;15.77;14.23;;;32.50;99.90;;;;;;5054869;28;20196;-68
2022/08/16 06:04:58;;;;;;;15.27;13.75;;;32.30;99.90;;;;;;5045219;28;20265;-68
2022/08/16 06:07:24;;;;;;;14.75;13.18;;;32.10;99.90;;;;;;5049002;28;20660;-67
2022/08/16 06:09:49;;;;;;;14.02;12.48;;;32.70;99.90;;;;;;5055256;28;20167;-68
2022/08/16 06:12:15;;;;;;;15.25;13.93;;;33.40;99.90;;;;;;5046897;28;20191;-67
2022/08/16 06:14:41;;;;;;;14.93;13.50;;;33.20;99.90;;;;;;5046620;28;20218;-68
2022/08/16 06:17:07;;;;;;;13.48;12.13;;;33.80;99.90;;;;;;5056784;28;20341;-69
2022/08/16 06:19:33;;;;;;;12.85;11.77;;;33.80;99.90;;;;;;5050814;28;20183;-68
2022/08/16 06:21:58;;;;;;;13.98;12.68;;;34.50;99.90;;;;;;5052022;28;20257;-68
2022/08/16 06:24:24;;;;;;;13.90;12.52;;;34.40;99.90;;;;;;5047291;28;20731;-68
2022/08/16 06:26:50;;;;;;;12.88;11.68;;;34.00;99.90;;;;;;5054822;28;20264;-68
2022/08/16 06:29:15;;;;;;;12.48;11.27;;;34.80;99.90;;;;;;5046488;28;20249;-67
2022/08/16 06:31:41;;;;;;;12.02;10.93;;;34.80;99.90;;;;;;5043291;28;20211;-68
2022/08/16 06:34:07;;;;;;;13.45;12.15;;;34.90;99.90;;;;;;5051989;28;20648;-68
2022/08/16 06:36:32;;;;;;;13.85;12.52;;;35.60;99.90;;;;;;5050806;28;20325;-68
2022/08/16 06:38:58;;;;;;;12.80;11.60;;;35.80;99.90;;;;;;5044008;28;20205;-68
2022/08/16 06:41:24;;;;;;;12.73;11.52;;;35.40;99.90;;;;;;5046655;28;20325;-68
2022/08/16 06:43:50;;;;;;;12.57;11.52;;;35.60;99.90;;;;;;5056001;28;20230;-68
2022/08/16 06:46:28;;;;;;;13.45;12.25;;;36.00;99.90;;;;;;5047214;28;20296;-68
2022/08/16 06:48:54;;;;;;;11.88;10.63;;;36.90;99.90;;;;;;5042576;28;20194;-68
2022/08/16 06:51:19;;;;;;;11.23;10.32;;;36.80;99.90;;;;;;5053730;28;20294;-67
2022/08/16 06:53:45;;;;;;;12.90;11.68;;;36.70;99.80;;;;;;5058841;28;20271;-69
2022/08/16 06:56:10;;;;;;;11.82;10.60;;;36.20;99.90;;;;;;5054567;28;20286;-68
2022/08/16 06:58:37;;;;;;;13.10;11.93;;;37.00;99.50;;;;;;5055707;28;20296;-68
2022/08/16 07:01:03;;;;;;;11.52;10.63;;;36.90;99.00;;;;;;5058399;28;20242;-68
2022/08/16 07:03:30;;;;;;;11.38;10.35;;;37.20;98.70;;;;;;5051084;28;20208;-69
2022/08/16 07:05:56;;;;;;;13.10;12.00;;;37.50;98.30;;;;;;5046658;28;20218;-68
2022/08/16 07:08:24;;;;;;;12.18;11.18;;;37.80;97.00;;;;;;5055191;28;20672;-68
2022/08/16 07:10:50;;;;;;;13.88;12.55;;;37.20;97.20;;;;;;5056326;28;20284;-68
2022/08/16 07:13:16;;;;;;;13.05;11.93;;;36.80;97.90;;;;;;5047866;28;20283;-68
2022/08/16 07:15:42;;;;;;;13.65;12.45;;;37.10;97.60;;;;;;5055761;28;20277;-68
2022/08/16 07:18:09;;;;;;;12.85;11.52;;;37.00;96.70;;;;;;5056999;28;20609;-68
2022/08/16 07:20:36;;;;;;;12.63;11.63;;;37.20;96.70;;;;;;5051946;28;20573;-68
2022/08/16 07:23:03;;;;;;;14.23;12.95;;;36.80;97.40;;;;;;5056292;28;20743;-68
2022/08/16 07:25:29;;;;;;;13.57;12.30;;;36.40;97.30;;;;;;5059417;28;20178;-67
2022/08/16 07:27:54;;;;;;;14.15;12.95;;;36.10;97.60;;;;;;5056072;28;20195;-67
2022/08/16 07:30:21;;;;;;;12.75;11.55;;;36.50;97.00;;;;;;5047290;28;20200;-67
2022/08/16 07:32:49;;;;;;;13.57;12.27;;;36.80;97.50;;;;;;5049414;28;20693;-67
2022/08/16 07:35:15;;;;;;;13.45;12.25;;;36.80;97.10;;;;;;5055848;28;20198;-67
2022/08/16 07:37:40;;;;;;;13.60;12.40;;;37.10;96.20;;;;;;5052458;28;20215;-68
2022/08/16 07:40:07;;;;;;;13.27;11.98;;;37.90;95.90;;;;;;5046040;28;20167;-67
2022/08/16 07:42:32;;;;;;;13.00;11.73;;;38.30;94.90;;;;;;5058381;28;20301;-66
2022/08/16 07:44:58;;;;;;;11.98;10.88;;;37.40;95.40;;;;;;5055958;28;20687;-67
2022/08/16 07:47:24;;;;;;;13.40;12.15;;;37.80;95.70;;;;;;5047170;28;20342;-67
2022/08/16 07:49:50;;;;;;;13.77;12.48;;;37.90;95.40;;;;;;5049113;28;20268;-67
2022/08/16 07:52:16;;;;;;;12.50;11.43;;;38.20;95.10;;;;;;5056085;28;20175;-67
2022/08/16 07:54:41;;;;;;;12.52;11.40;;;38.50;94.90;;;;;;5052653;28;20212;-69
2022/08/16 07:57:07;;;;;;;11.98;10.88;;;38.50;94.30;;;;;;5045219;28;20202;-67
2022/08/16 07:59:33;;;;;;;12.52;11.52;;;39.00;94.10;;;;;;5058077;28;20195;-68
2022/08/16 08:01:58;;;;;;;12.18;11.18;;;39.20;93.40;;;;;;5055095;28;20227;-67
2022/08/16 08:04:25;;;;;;;12.90;11.80;;;38.80;93.30;;;;;;5047373;28;20546;-67
2022/08/16 08:06:51;;;;;;;13.60;12.30;;;38.60;93.70;;;;;;5049294;28;20184;-67
2022/08/16 08:09:16;;;;;;;12.35;11.18;;;38.60;93.90;;;;;;5055312;28;20741;-67
2022/08/16 08:11:44;;;;;;;13.88;12.77;;;38.40;94.40;;;;;;5052733;28;20201;-67
2022/08/16 08:14:11;;;;;;;12.75;11.65;;;38.00;94.10;;;;;;5044149;28;20207;-69
2022/08/16 08:16:37;;;;;;;12.15;11.05;;;37.60;94.50;;;;;;5051868;28;20183;-69
2022/08/16 08:19:03;;;;;;;11.18;10.27;;;37.40;95.80;;;;;;5053411;28;20171;-69
2022/08/16 08:21:32;;;;;;;13.02;11.73;;;37.70;95.40;;;;;;5073159;22;20252;-72
2022/08/16 08:23:57;;;;;;;12.45;11.15;;;37.50;94.70;;;;;;5079969;28;20197;-71
2022/08/16 08:26:24;;;;;;;11.35;10.35;;;36.60;95.50;;;;;;5081964;28;20296;-72
2022/08/16 08:28:49;;;;;;;14.10;10.88;;;36.80;96.40;;;;;;5055055;28;20195;-72
2022/08/16 08:31:15;;;;;;;11.68;10.73;;;36.90;96.10;;;;;;5076214;28;20194;-72
2022/08/16 08:33:40;;;;;;;11.93;10.82;;;36.40;95.50;;;;;;5078765;28;20240;-72
2022/08/16 08:36:09;;;;;;;11.77;10.68;;;36.40;96.60;;;;;;5054809;28;20221;-71
2022/08/16 08:38:34;;;;;;;11.73;10.60;;;35.70;97.10;;;;;;5078368;28;20738;-70
2022/08/16 08:41:01;;;;;;;12.65;11.43;;;35.90;96.70;;;;;;5073029;28;20209;-72
2022/08/16 08:43:27;;;;;;;10.52;9.40;;;35.30;97.80;;;;;;5080906;28;20178;-74
2022/08/16 08:45:56;;;;;;;12.23;10.98;;;35.00;97.80;;;;;;5077822;28;20189;-72
2022/08/16 08:48:21;;;;;;;12.48;11.25;;;35.60;97.70;;;;;;5073403;28;20277;-72
2022/08/16 08:50:48;;;;;;;12.00;11.00;;;36.10;97.20;;;;;;5079318;28;20285;-73
2022/08/16 08:53:14;;;;;;;11.85;10.20;;;36.40;96.00;;;;;;5077211;28;20194;-71
2022/08/16 08:55:41;;;;;;;10.30;9.18;;;36.80;96.10;;;;;;5081284;28;20581;-72
2022/08/16 08:58:07;;;;;;;11.50;9.65;;;36.50;95.20;;;;;;5054898;28;20171;-71
2022/08/16 09:00:33;;;;;;;10.80;9.75;;;36.60;95.60;;;;;;5079357;28;20205;-72
2022/08/16 09:02:59;;;;;;;12.02;9.32;;;36.60;95.20;;;;;;5058425;28;20749;-72
2022/08/16 09:05:26;;;;;;;12.50;10.07;;;36.90;95.50;;;;;;5055583;28;20293;-71
2022/08/16 09:07:53;;;;;;;10.55;9.45;;;35.30;95.60;;;;;;5078583;28;20235;-71
2022/08/16 09:10:19;;;;;;;9.90;8.98;;;35.70;97.00;;;;;;5077377;28;20171;-72
2022/08/16 09:12:46;;;;;;;9.73;8.77;;;36.10;95.70;;;;;;5075950;28;20194;-71
2022/08/16 09:15:14;;;;;;;12.43;11.10;;;36.30;95.40;;;;;;5074727;28;20257;-71
2022/08/16 09:17:39;;;;;;;10.38;9.38;;;36.40;95.30;;;;;;5062551;28;20210;-72
2022/08/16 09:20:06;;;;;;;11.82;10.73;;;35.10;96.00;;;;;;5057141;28;20195;-73
2022/08/16 09:22:33;;;;;;;10.82;9.55;;;34.40;96.70;;;;;;5073505;28;20202;-71
2022/08/16 09:24:58;;;;;;;12.32;10.15;;;34.70;97.50;;;;;;5079218;28;20173;-72
2022/08/16 09:27:25;;;;;;;10.55;9.07;;;34.50;97.60;;;;;;5076849;28;20207;-71
2022/08/16 09:29:51;;;;;;;10.25;9.25;;;34.80;98.30;;;;;;5058725;28;20191;-71
2022/08/16 09:32:17;;;;;;;12.02;10.98;;;34.90;97.00;;;;;;5072046;28;20214;-71
2022/08/16 09:34:43;;;;;;;12.15;10.25;;;34.70;97.00;;;;;;5080150;28;20206;-71
2022/08/16 09:37:09;;;;;;;10.00;8.93;;;33.90;98.20;;;;;;5075949;28;20178;-70
2022/08/16 09:39:34;;;;;;;10.88;9.20;;;33.90;99.40;;;;;;5055155;28;20207;-71
2022/08/16 09:42:01;;;;;;;12.10;10.07;;;33.90;97.30;;;;;;5078169;28;20203;-71
2022/08/16 09:44:27;;;;;;;13.82;11.15;;;33.40;98.80;;;;;;5077361;28;20206;-71
2022/08/16 09:46:54;;;;;;;9.98;9.00;;;33.20;99.30;;;;;;5074394;28;20237;-72
2022/08/16 09:49:21;;;;;;;10.38;8.93;;;32.90;99.90;;;;;;5073585;28;20708;-70
2022/08/16 09:51:52;;;;;;;9.65;8.63;;;33.30;99.70;;;;;;5073705;28;20194;-70
2022/08/16 09:54:18;;;;;;;10.15;9.13;;;33.80;99.90;;;;;;5075058;28;20620;-71
2022/08/16 09:56:44;;;;;;;9.43;8.48;;;34.20;99.30;;;;;;5077505;28;20207;-68
2022/08/16 09:59:10;;;;;;;10.45;8.55;;;34.20;98.80;;;;;;5081187;28;20198;-69
2022/08/16 10:01:40;;;;;;;9.38;8.48;;;34.30;98.90;;;;;;5059499;28;20192;-70
2022/08/16 10:04:06;;;;;;;12.70;9.98;;;34.60;98.60;;;;;;5077721;28;20628;-72
2022/08/16 10:06:32;;;;;;;8.98;8.07;;;34.30;97.20;;;;;;5075135;28;20231;-70
2022/08/16 10:08:57;;;;;;;10.05;8.57;;;33.70;98.40;;;;;;5080151;28;20674;-70
2022/08/16 10:14:07;;;;;;;9.10;8.25;;;34.00;99.00;;;;;;5070259;28;20218;-72
2022/08/16 10:16:33;;;;;;;10.27;9.30;;;34.20;98.60;;;;;;5075734;28;20175;-69
2022/08/16 10:18:59;;;;;;;11.90;9.57;;;33.70;98.80;;;;;;5076928;28;20185;-69
2022/08/16 10:21:26;;;;;;;11.38;9.13;;;32.50;99.80;;;;;;5055570;28;20297;-69
2022/08/16 10:23:53;;;;;;;9.90;8.98;;;32.30;99.90;;;;;;5075075;28;20202;-69
2022/08/16 10:26:20;;;;;;;9.55;8.65;;;32.50;99.90;;;;;;5076118;28;20214;-69
2022/08/16 10:28:46;;;;;;;9.60;8.30;;;33.10;99.90;;;;;;5071090;28;20203;-68
2022/08/16 10:31:12;;;;;;;7.70;7.00;;;32.70;98.60;;;;;;5073500;28;20591;-69
2022/08/16 10:33:38;;;;;;;12.52;8.70;;;32.90;99.40;;;;;;5076283;28;20206;-69
2022/08/16 10:36:06;;;;;;;11.65;10.10;;;33.30;98.90;;;;;;5057618;28;20194;-69
2022/08/16 10:38:33;;;;;;;9.60;7.90;;;34.00;98.20;;;;;;5048265;28;20354;-69
2022/08/16 10:40:59;;;;;;;8.00;7.20;;;33.90;97.00;;;;;;5074575;28;20225;-68
2022/08/16 10:43:25;;;;;;;9.35;7.90;;;34.30;97.20;;;;;;5077326;28;20195;-68
2022/08/16 10:45:51;;;;;;;8.65;7.32;;;33.90;95.90;;;;;;5075911;28;20315;-69
2022/08/16 10:48:17;;;;;;;9.20;8.27;;;33.90;96.90;;;;;;5071709;28;20260;-69
2022/08/16 10:50:44;;;;;;;13.88;9.00;;;32.90;96.40;;;;;;5058097;28;20213;-69
2022/08/16 10:53:10;;;;;;;9.00;8.07;;;32.30;97.80;;;;;;5071539;28;20273;-68
2022/08/16 10:55:38;;;;;;;9.18;7.53;;;32.40;98.50;;;;;;5073981;28;20187;-69
2022/08/16 10:58:06;;;;;;;11.77;7.68;;;33.10;98.40;;;;;;5070855;28;20339;-69
2022/08/16 11:00:33;;;;;;;10.82;8.60;;;33.20;97.10;;;;;;5077896;28;20203;-69
2022/08/16 11:03:03;;;;;;;10.07;8.32;;;33.20;97.10;;;;;;5074455;28;20226;-69
2022/08/16 11:05:34;;;;;;;9.63;8.68;;;33.00;98.20;;;;;;5069604;28;20203;-68
2022/08/16 11:08:01;;;;;;;9.65;8.38;;;33.00;97.80;;;;;;5059035;28;20206;-70
2022/08/16 11:10:36;;;;;;;9.50;7.45;;;33.20;98.30;;;;;;5057943;28;20586;-69
2022/08/16 11:13:02;;;;;;;8.32;7.45;;;32.70;97.70;;;;;;5069673;28;20163;-69
2022/08/16 11:15:28;;;;;;;9.77;8.88;;;33.20;97.60;;;;;;5071381;28;20198;-70
2022/08/16 11:17:54;;;;;;;8.55;7.65;;;32.90;98.20;;;;;;5077855;28;20764;-69
2022/08/16 11:20:21;;;;;;;8.10;7.28;;;33.50;97.30;;;;;;5073432;28;20207;-68
2022/08/16 11:22:48;;;;;;;7.85;7.05;;;33.30;96.40;;;;;;5069505;28;20499;-68
2022/08/16 11:25:17;;;;;;;10.77;8.68;;;33.40;95.70;;;;;;5059445;28;20171;-68
2022/08/16 11:27:43;;;;;;;8.98;7.97;;;33.20;96.10;;;;;;5059000;28;20206;-69
2022/08/16 11:30:11;;;;;;;10.00;8.77;;;33.30;96.60;;;;;;5073512;28;20202;-69
2022/08/16 11:32:37;;;;;;;11.88;8.80;;;33.10;96.70;;;;;;5054185;28;20207;-69
2022/08/16 11:35:12;;;;;;;9.25;8.27;;;32.80;97.30;;;;;;5076531;28;20330;-68
2022/08/16 11:37:39;;;;;;;8.60;7.80;;;32.70;97.50;;;;;;5076092;28;20174;-69
2022/08/16 11:40:06;;;;;;;10.25;7.90;;;32.90;97.50;;;;;;5074697;28;20271;-69
2022/08/16 11:42:32;;;;;;;9.40;8.43;;;32.60;97.10;;;;;;5063823;28;20203;-70
2022/08/16 11:44:58;;;;;;;9.63;8.63;;;32.10;98.00;;;;;;5079487;28;20249;-70
2022/08/16 11:47:24;;;;;;;8.95;7.75;;;31.60;98.70;;;;;;5076332;28;20235;-68
2022/08/16 11:49:50;;;;;;;8.93;7.85;;;31.60;99.10;;;;;;5077014;28;20225;-69
2022/08/16 11:52:16;;;;;;;10.95;7.97;;;31.90;99.40;;;;;;5079647;28;20195;-68
2022/08/16 11:54:43;;;;;;;8.95;8.05;;;32.20;99.00;;;;;;5078673;28;20224;-69
2022/08/16 11:57:10;;;;;;;9.50;8.38;;;32.60;98.70;;;;;;5074297;28;20671;-69
2022/08/16 11:59:37;;;;;;;9.35;8.02;;;32.70;98.30;;;;;;5077972;28;20214;-68
2022/08/16 12:02:05;;;;;;;8.48;7.72;;;32.60;98.30;;;;;;5060294;28;20340;-69
2022/08/16 12:04:32;;;;;;;10.80;8.00;;;32.60;98.50;;;;;;5074435;28;20155;-69
2022/08/16 12:06:58;;;;;;;8.73;7.75;;;32.60;98.20;;;;;;5077301;28;20194;-69
2022/08/16 12:09:24;;;;;;;8.38;7.65;;;32.30;98.40;;;;;;5061095;28;20202;-69
2022/08/16 12:11:50;;;;;;;8.05;7.28;;;32.20;98.20;;;;;;5059752;28;20562;-69
2022/08/16 12:14:16;;;;;;;10.27;7.75;;;32.50;98.00;;;;;;5074801;28;20199;-68
2022/08/16 12:16:41;;;;;;;7.65;6.80;;;32.80;96.70;;;;;;5079148;28;20199;-68
2022/08/16 12:19:07;;;;;;;7.80;6.65;;;32.90;96.90;;;;;;5077951;28;20165;-67
2022/08/16 12:21:33;;;;;;;8.63;7.65;;;33.10;96.60;;;;;;5076298;28;20224;-68
2022/08/16 12:23:59;;;;;;;9.02;7.47;;;32.50;97.50;;;;;;5076703;28;20615;-68
2022/08/16 12:26:25;;;;;;;7.95;7.15;;;32.60;97.70;;;;;;5061168;28;20231;-68
2022/08/16 12:28:52;;;;;;;8.73;7.38;;;32.60;97.00;;;;;;5059809;28;20202;-68
2022/08/16 12:31:18;;;;;;;8.80;7.80;;;32.70;97.00;;;;;;5075647;28;20183;-70